This is the latest recevied weather packets stored in our database for station/object WC4PEM-15. If no packets are shown the sender has not sent any weather packets the latest 1 day(s).
| Time | Temp. | Humidity | Pressure | Rain* | Wind** | Luminosity | Snow |
|---|---|---|---|---|---|---|---|
| 1777993559 | 27.22° C | 58% | 1016.2 hPa | 0 mm | 4.47 m/s, 96° | - | - |
| 1777993501 | 27.22° C | 58% | 1016.2 hPa | 0 mm | 4.47 m/s, 96° | - | - |
| 1777993253 | 26.67° C | 60% | 1016.3 hPa | 0 mm | 4.47 m/s, 102° | - | - |
| 1777993201 | 26.67° C | 60% | 1016.3 hPa | 0 mm | 4.47 m/s, 102° | - | - |
| 1777993089 | 26.11° C | 59% | 1016.3 hPa | 0 mm | 4.92 m/s, 100° | - | - |
| 1777992993 | 26.11° C | 59% | 1016.3 hPa | 0 mm | 4.92 m/s, 100° | - | - |
| 1777992901 | 26.11° C | 59% | 1016.3 hPa | 0 mm | 4.92 m/s, 100° | - | - |
| 1777992684 | 26.67° C | 59% | 1016.1 hPa | 0 mm | 4.92 m/s, 126° | - | - |
| 1777992601 | 26.67° C | 59% | 1016.1 hPa | 0 mm | 4.92 m/s, 126° | - | - |
| 1777992366 | 26.11° C | 62% | 1016.2 hPa | 0 mm | 4.47 m/s, 70° | - | - |
| 1777992301 | 26.11° C | 62% | 1016.2 hPa | 0 mm | 4.47 m/s, 70° | - | - |
| 1777992162 | 26.11° C | 63% | 1016.1 hPa | 0 mm | 4.47 m/s, 80° | - | - |
| 1777992001 | 26.11° C | 63% | 1016.1 hPa | 0 mm | 4.47 m/s, 80° | - | - |
| 1777991991 | 26.11° C | 65% | 1016.1 hPa | 0 mm | 4.47 m/s, 93° | - | - |
| 1777991701 | 26.11° C | 65% | 1016.1 hPa | 0 mm | 4.47 m/s, 93° | - | - |
| 1777991572 | 25.56° C | 66% | 1015.9 hPa | 0 mm | 4.47 m/s, 71° | - | - |
| 1777991401 | 25.56° C | 66% | 1015.9 hPa | 0 mm | 4.47 m/s, 71° | - | - |
| 1777991172 | 25.56° C | 64% | 1015.9 hPa | 0 mm | 5.36 m/s, 103° | - | - |
| 1777991101 | 25.56° C | 64% | 1015.9 hPa | 0 mm | 5.36 m/s, 103° | - | - |
| 1777990908 | 25.56° C | 66% | 1015.8 hPa | 0 mm | 5.81 m/s, 84° | - | - |
| 1777990801 | 25.56° C | 66% | 1015.8 hPa | 0 mm | 5.81 m/s, 84° | - | - |
| 1777990501 | 25.56° C | 67% | 1015.7 hPa | 0 mm | 5.81 m/s, 88° | - | - |
| 1777990286 | 25.56° C | 67% | 1015.7 hPa | 0 mm | 5.81 m/s, 109° | - | - |
| 1777990201 | 25.56° C | 67% | 1015.7 hPa | 0 mm | 5.81 m/s, 109° | - | - |
| 1777989993 | 25.56° C | 67% | 1015.8 hPa | 0 mm | 5.81 m/s, 105° | - | - |
* Rain latest hour (hover to see other rain measurements)
** Current wind speed in m/s (hover to see current wind gust speed)